sensor_id;sensor_type;location;lat;lon;timestamp;P1;durP1;ratioP1;P2;durP2;ratioP2
7383;SDS011;3733;47.994;8.820;2023-04-01T00:01:46;1.13;;;1.03;;
7383;SDS011;3733;47.994;8.820;2023-04-01T00:04:11;4.40;;;1.10;;
7383;SDS011;3733;47.994;8.820;2023-04-01T00:06:37;2.90;;;1.87;;
7383;SDS011;3733;47.994;8.820;2023-04-01T00:09:02;3.00;;;1.70;;
7383;SDS011;3733;47.994;8.820;2023-04-01T00:11:28;2.40;;;1.37;;
7383;SDS011;3733;47.994;8.820;2023-04-01T00:13:55;1.70;;;1.10;;
7383;SDS011;3733;47.994;8.820;2023-04-01T00:16:21;1.83;;;1.17;;
7383;SDS011;3733;47.994;8.820;2023-04-01T00:18:46;2.60;;;1.00;;
7383;SDS011;3733;47.994;8.820;2023-04-01T00:21:13;4.73;;;1.30;;
7383;SDS011;3733;47.994;8.820;2023-04-01T00:23:38;4.13;;;1.10;;
7383;SDS011;3733;47.994;8.820;2023-04-01T00:26:04;1.90;;;1.07;;
7383;SDS011;3733;47.994;8.820;2023-04-01T00:28:30;1.80;;;1.23;;
7383;SDS011;3733;47.994;8.820;2023-04-01T00:30:58;1.97;;;1.00;;
7383;SDS011;3733;47.994;8.820;2023-04-01T00:33:28;1.07;;;0.90;;
7383;SDS011;3733;47.994;8.820;2023-04-01T00:35:53;4.20;;;1.23;;
7383;SDS011;3733;47.994;8.820;2023-04-01T00:38:19;0.97;;;0.90;;
7383;SDS011;3733;47.994;8.820;2023-04-01T00:40:45;2.40;;;1.07;;
7383;SDS011;3733;47.994;8.820;2023-04-01T00:43:15;1.63;;;0.90;;
7383;SDS011;3733;47.994;8.820;2023-04-01T00:45:46;2.97;;;1.10;;
7383;SDS011;3733;47.994;8.820;2023-04-01T00:48:17;2.33;;;1.23;;
7383;SDS011;3733;47.994;8.820;2023-04-01T00:51:06;3.93;;;1.20;;
7383;SDS011;3733;47.994;8.820;2023-04-01T00:53:34;2.03;;;1.10;;
7383;SDS011;3733;47.994;8.820;2023-04-01T00:56:10;1.40;;;1.30;;
7383;SDS011;3733;47.994;8.820;2023-04-01T00:58:41;2.17;;;1.10;;
7383;SDS011;3733;47.994;8.820;2023-04-01T01:01:11;2.20;;;1.33;;
7383;SDS011;3733;47.994;8.820;2023-04-01T01:03:37;1.47;;;1.30;;
7383;SDS011;3733;47.994;8.820;2023-04-01T01:11:47;5.13;;;1.10;;
7383;SDS011;3733;47.994;8.820;2023-04-01T01:14:29;1.93;;;0.93;;
7383;SDS011;3733;47.994;8.820;2023-04-01T01:22:26;1.30;;;0.90;;
7383;SDS011;3733;47.994;8.820;2023-04-01T01:28:04;1.53;;;0.87;;
7383;SDS011;3733;47.994;8.820;2023-04-01T01:35:51;4.00;;;0.83;;
7383;SDS011;3733;47.994;8.820;2023-04-01T01:38:24;0.90;;;0.90;;
7383;SDS011;3733;47.994;8.820;2023-04-01T01:40:53;1.33;;;1.23;;
7383;SDS011;3733;47.994;8.820;2023-04-01T01:43:24;0.97;;;0.87;;
7383;SDS011;3733;47.994;8.820;2023-04-01T01:45:54;1.07;;;0.80;;
7383;SDS011;3733;47.994;8.820;2023-04-01T01:48:23;1.53;;;1.07;;
7383;SDS011;3733;47.994;8.820;2023-04-01T01:50:51;2.13;;;0.80;;
7383;SDS011;3733;47.994;8.820;2023-04-01T01:53:17;6.03;;;0.90;;
7383;SDS011;3733;47.994;8.820;2023-04-01T01:55:44;5.33;;;0.90;;
7383;SDS011;3733;47.994;8.820;2023-04-01T01:58:22;1.70;;;1.00;;
7383;SDS011;3733;47.994;8.820;2023-04-01T02:01:00;1.10;;;1.00;;
7383;SDS011;3733;47.994;8.820;2023-04-01T02:03:29;0.70;;;0.70;;
7383;SDS011;3733;47.994;8.820;2023-04-01T02:05:58;1.47;;;1.00;;
7383;SDS011;3733;47.994;8.820;2023-04-01T02:10:56;3.33;;;1.07;;
7383;SDS011;3733;47.994;8.820;2023-04-01T02:14:00;4.87;;;1.13;;
7383;SDS011;3733;47.994;8.820;2023-04-01T02:16:20;1.50;;;1.00;;
7383;SDS011;3733;47.994;8.820;2023-04-01T02:18:54;8.97;;;4.43;;
7383;SDS011;3733;47.994;8.820;2023-04-01T02:21:23;2.87;;;1.20;;
7383;SDS011;3733;47.994;8.820;2023-04-01T02:23:50;1.60;;;1.10;;
7383;SDS011;3733;47.994;8.820;2023-04-01T02:26:18;3.00;;;1.07;;
7383;SDS011;3733;47.994;8.820;2023-04-01T02:28:45;1.93;;;1.30;;
7383;SDS011;3733;47.994;8.820;2023-04-01T02:31:13;1.47;;;1.20;;
7383;SDS011;3733;47.994;8.820;2023-04-01T02:33:40;1.53;;;0.97;;
7383;SDS011;3733;47.994;8.820;2023-04-01T02:36:10;2.70;;;1.27;;
7383;SDS011;3733;47.994;8.820;2023-04-01T02:38:39;2.53;;;1.17;;
7383;SDS011;3733;47.994;8.820;2023-04-01T02:41:06;1.93;;;1.30;;
7383;SDS011;3733;47.994;8.820;2023-04-01T02:43:32;1.50;;;0.90;;
7383;SDS011;3733;47.994;8.820;2023-04-01T02:45:58;1.23;;;1.07;;
7383;SDS011;3733;47.994;8.820;2023-04-01T02:48:24;2.13;;;1.10;;
7383;SDS011;3733;47.994;8.820;2023-04-01T02:50:50;2.20;;;0.90;;
7383;SDS011;3733;47.994;8.820;2023-04-01T02:53:16;1.20;;;1.10;;
7383;SDS011;3733;47.994;8.820;2023-04-01T02:55:41;2.93;;;1.40;;
7383;SDS011;3733;47.994;8.820;2023-04-01T02:58:07;4.13;;;1.30;;
7383;SDS011;3733;47.994;8.820;2023-04-01T03:00:33;1.17;;;1.00;;
7383;SDS011;3733;47.994;8.820;2023-04-01T03:02:58;1.23;;;0.90;;
7383;SDS011;3733;47.994;8.820;2023-04-01T03:05:24;2.10;;;1.00;;
7383;SDS011;3733;47.994;8.820;2023-04-01T03:07:50;3.03;;;1.00;;
7383;SDS011;3733;47.994;8.820;2023-04-01T03:10:16;0.97;;;0.90;;
7383;SDS011;3733;47.994;8.820;2023-04-01T03:12:42;2.00;;;1.10;;
7383;SDS011;3733;47.994;8.820;2023-04-01T03:15:09;0.93;;;0.90;;
7383;SDS011;3733;47.994;8.820;2023-04-01T03:17:36;1.27;;;0.90;;
7383;SDS011;3733;47.994;8.820;2023-04-01T03:20:02;4.20;;;0.90;;
7383;SDS011;3733;47.994;8.820;2023-04-01T03:22:29;3.23;;;1.10;;
7383;SDS011;3733;47.994;8.820;2023-04-01T03:24:55;2.97;;;0.97;;
7383;SDS011;3733;47.994;8.820;2023-04-01T03:27:21;3.20;;;1.20;;
7383;SDS011;3733;47.994;8.820;2023-04-01T03:29:48;1.27;;;1.10;;
7383;SDS011;3733;47.994;8.820;2023-04-01T03:32:13;1.83;;;1.00;;
7383;SDS011;3733;47.994;8.820;2023-04-01T03:34:39;1.83;;;1.20;;
7383;SDS011;3733;47.994;8.820;2023-04-01T03:37:05;1.17;;;1.00;;
7383;SDS011;3733;47.994;8.820;2023-04-01T03:39:31;2.07;;;1.00;;
7383;SDS011;3733;47.994;8.820;2023-04-01T03:41:57;2.53;;;1.00;;
7383;SDS011;3733;47.994;8.820;2023-04-01T03:44:22;1.77;;;1.13;;
7383;SDS011;3733;47.994;8.820;2023-04-01T03:46:48;1.30;;;0.80;;
7383;SDS011;3733;47.994;8.820;2023-04-01T03:49:13;1.63;;;1.20;;
7383;SDS011;3733;47.994;8.820;2023-04-01T03:51:39;4.03;;;1.10;;
7383;SDS011;3733;47.994;8.820;2023-04-01T03:54:06;2.90;;;1.03;;
7383;SDS011;3733;47.994;8.820;2023-04-01T03:56:32;2.00;;;0.83;;
7383;SDS011;3733;47.994;8.820;2023-04-01T03:58:57;3.17;;;1.00;;
7383;SDS011;3733;47.994;8.820;2023-04-01T04:01:23;0.90;;;0.90;;
7383;SDS011;3733;47.994;8.820;2023-04-01T04:03:50;1.07;;;0.97;;
7383;SDS011;3733;47.994;8.820;2023-04-01T04:06:16;1.73;;;1.03;;
7383;SDS011;3733;47.994;8.820;2023-04-01T04:08:43;1.23;;;1.00;;
7383;SDS011;3733;47.994;8.820;2023-04-01T04:11:09;1.20;;;1.10;;
7383;SDS011;3733;47.994;8.820;2023-04-01T04:13:35;5.40;;;1.10;;
7383;SDS011;3733;47.994;8.820;2023-04-01T04:16:02;2.33;;;1.00;;
7383;SDS011;3733;47.994;8.820;2023-04-01T04:18:28;1.13;;;1.03;;
7383;SDS011;3733;47.994;8.820;2023-04-01T04:20:54;0.97;;;0.87;;
7383;SDS011;3733;47.994;8.820;2023-04-01T04:23:20;3.93;;;1.20;;
7383;SDS011;3733;47.994;8.820;2023-04-01T04:25:58;2.03;;;1.40;;
7383;SDS011;3733;47.994;8.820;2023-04-01T04:28:27;2.07;;;1.20;;
7383;SDS011;3733;47.994;8.820;2023-04-01T04:30:53;1.33;;;1.10;;
7383;SDS011;3733;47.994;8.820;2023-04-01T04:33:20;1.13;;;0.97;;
7383;SDS011;3733;47.994;8.820;2023-04-01T04:35:46;2.70;;;1.30;;
7383;SDS011;3733;47.994;8.820;2023-04-01T04:38:11;3.73;;;1.40;;
7383;SDS011;3733;47.994;8.820;2023-04-01T04:40:38;3.10;;;1.40;;
7383;SDS011;3733;47.994;8.820;2023-04-01T04:43:04;1.70;;;1.43;;
7383;SDS011;3733;47.994;8.820;2023-04-01T04:45:30;4.50;;;1.30;;
7383;SDS011;3733;47.994;8.820;2023-04-01T04:47:56;3.07;;;1.20;;
7383;SDS011;3733;47.994;8.820;2023-04-01T04:50:23;2.63;;;1.10;;
7383;SDS011;3733;47.994;8.820;2023-04-01T04:52:49;7.00;;;1.67;;
7383;SDS011;3733;47.994;8.820;2023-04-01T04:55:14;2.87;;;1.40;;
7383;SDS011;3733;47.994;8.820;2023-04-01T04:57:40;10.60;;;1.10;;
7383;SDS011;3733;47.994;8.820;2023-04-01T05:00:06;2.17;;;1.20;;
7383;SDS011;3733;47.994;8.820;2023-04-01T05:02:32;2.40;;;1.33;;
7383;SDS011;3733;47.994;8.820;2023-04-01T05:04:58;1.10;;;0.80;;
7383;SDS011;3733;47.994;8.820;2023-04-01T05:07:24;0.97;;;0.80;;
7383;SDS011;3733;47.994;8.820;2023-04-01T05:09:50;0.80;;;0.80;;
7383;SDS011;3733;47.994;8.820;2023-04-01T05:12:15;2.10;;;1.00;;
7383;SDS011;3733;47.994;8.820;2023-04-01T05:14:41;1.80;;;0.97;;
7383;SDS011;3733;47.994;8.820;2023-04-01T05:17:10;1.70;;;1.00;;
7383;SDS011;3733;47.994;8.820;2023-04-01T05:19:36;2.80;;;1.07;;
7383;SDS011;3733;47.994;8.820;2023-04-01T05:22:03;2.20;;;1.20;;
7383;SDS011;3733;47.994;8.820;2023-04-01T05:24:29;2.50;;;1.47;;
7383;SDS011;3733;47.994;8.820;2023-04-01T05:26:55;1.60;;;1.17;;
7383;SDS011;3733;47.994;8.820;2023-04-01T05:29:22;3.27;;;1.10;;
7383;SDS011;3733;47.994;8.820;2023-04-01T05:31:48;0.83;;;0.83;;
7383;SDS011;3733;47.994;8.820;2023-04-01T05:34:14;3.90;;;1.10;;
7383;SDS011;3733;47.994;8.820;2023-04-01T05:36:39;2.13;;;1.17;;
7383;SDS011;3733;47.994;8.820;2023-04-01T05:39:06;4.23;;;1.40;;
7383;SDS011;3733;47.994;8.820;2023-04-01T05:41:34;1.60;;;0.90;;
7383;SDS011;3733;47.994;8.820;2023-04-01T05:44:00;1.07;;;0.80;;
7383;SDS011;3733;47.994;8.820;2023-04-01T05:46:26;1.37;;;1.07;;
7383;SDS011;3733;47.994;8.820;2023-04-01T05:48:51;1.00;;;0.80;;
7383;SDS011;3733;47.994;8.820;2023-04-01T05:51:17;1.20;;;0.87;;
7383;SDS011;3733;47.994;8.820;2023-04-01T05:53:43;1.63;;;1.10;;
7383;SDS011;3733;47.994;8.820;2023-04-01T05:56:08;0.80;;;0.80;;
7383;SDS011;3733;47.994;8.820;2023-04-01T05:58:34;3.23;;;0.93;;
7383;SDS011;3733;47.994;8.820;2023-04-01T06:01:05;3.43;;;1.10;;
7383;SDS011;3733;47.994;8.820;2023-04-01T06:03:32;1.40;;;1.30;;
7383;SDS011;3733;47.994;8.820;2023-04-01T06:05:58;1.20;;;1.10;;
7383;SDS011;3733;47.994;8.820;2023-04-01T06:08:26;0.97;;;0.87;;
7383;SDS011;3733;47.994;8.820;2023-04-01T06:16:36;1.07;;;0.97;;
7383;SDS011;3733;47.994;8.820;2023-04-01T06:30:37;1.80;;;0.87;;
7383;SDS011;3733;47.994;8.820;2023-04-01T06:33:25;1.63;;;1.20;;
7383;SDS011;3733;47.994;8.820;2023-04-01T06:47:06;3.33;;;2.63;;
7383;SDS011;3733;47.994;8.820;2023-04-01T06:50:07;7.00;;;4.10;;
7383;SDS011;3733;47.994;8.820;2023-04-01T06:57:49;3.60;;;2.13;;
7383;SDS011;3733;47.994;8.820;2023-04-01T07:00:31;1.73;;;1.60;;
7383;SDS011;3733;47.994;8.820;2023-04-01T07:05:26;2.33;;;2.13;;
7383;SDS011;3733;47.994;8.820;2023-04-01T07:07:57;1.70;;;1.20;;
7383;SDS011;3733;47.994;8.820;2023-04-01T07:10:41;2.90;;;1.23;;
7383;SDS011;3733;47.994;8.820;2023-04-01T07:19:03;0.83;;;0.83;;
7383;SDS011;3733;47.994;8.820;2023-04-01T07:21:41;3.13;;;1.40;;
7383;SDS011;3733;47.994;8.820;2023-04-01T07:24:15;2.73;;;1.70;;
7383;SDS011;3733;47.994;8.820;2023-04-01T07:26:47;1.40;;;1.00;;
7383;SDS011;3733;47.994;8.820;2023-04-01T07:29:17;1.13;;;1.07;;
7383;SDS011;3733;47.994;8.820;2023-04-01T07:31:45;4.13;;;1.20;;
7383;SDS011;3733;47.994;8.820;2023-04-01T07:37:00;3.67;;;1.20;;
7383;SDS011;3733;47.994;8.820;2023-04-01T07:47:35;1.07;;;1.00;;
7383;SDS011;3733;47.994;8.820;2023-04-01T07:50:28;1.43;;;0.90;;
7383;SDS011;3733;47.994;8.820;2023-04-01T08:00:49;1.93;;;0.80;;
7383;SDS011;3733;47.994;8.820;2023-04-01T08:03:31;0.80;;;0.80;;
7383;SDS011;3733;47.994;8.820;2023-04-01T08:22:32;1.20;;;1.10;;
7383;SDS011;3733;47.994;8.820;2023-04-01T08:25:14;0.90;;;0.90;;
7383;SDS011;3733;47.994;8.820;2023-04-01T08:27:46;2.70;;;1.43;;
7383;SDS011;3733;47.994;8.820;2023-04-01T08:30:25;2.00;;;1.00;;
7383;SDS011;3733;47.994;8.820;2023-04-01T08:33:26;1.33;;;1.23;;
7383;SDS011;3733;47.994;8.820;2023-04-01T08:36:03;2.70;;;1.50;;
7383;SDS011;3733;47.994;8.820;2023-04-01T08:38:58;1.20;;;1.00;;
7383;SDS011;3733;47.994;8.820;2023-04-01T08:52:58;1.10;;;1.00;;
7383;SDS011;3733;47.994;8.820;2023-04-01T08:55:42;2.20;;;1.23;;
7383;SDS011;3733;47.994;8.820;2023-04-01T08:58:31;2.87;;;1.50;;
7383;SDS011;3733;47.994;8.820;2023-04-01T09:06:18;1.50;;;1.40;;
7383;SDS011;3733;47.994;8.820;2023-04-01T09:31:42;1.30;;;1.20;;
7383;SDS011;3733;47.994;8.820;2023-04-01T09:34:35;1.67;;;1.10;;
7383;SDS011;3733;47.994;8.820;2023-04-01T09:40:08;4.40;;;3.03;;
7383;SDS011;3733;47.994;8.820;2023-04-01T09:48:15;1.00;;;1.00;;
7383;SDS011;3733;47.994;8.820;2023-04-01T10:04:53;0.80;;;0.80;;
7383;SDS011;3733;47.994;8.820;2023-04-01T10:24:13;0.90;;;0.90;;
7383;SDS011;3733;47.994;8.820;2023-04-01T10:35:28;1.33;;;1.20;;
7383;SDS011;3733;47.994;8.820;2023-04-01T10:40:53;1.33;;;1.13;;
7383;SDS011;3733;47.994;8.820;2023-04-01T11:14:21;1.37;;;1.27;;
7383;SDS011;3733;47.994;8.820;2023-04-01T11:28:05;1.30;;;1.20;;
7383;SDS011;3733;47.994;8.820;2023-04-01T11:31:00;1.47;;;1.37;;
7383;SDS011;3733;47.994;8.820;2023-04-01T11:39:37;1.63;;;1.43;;
7383;SDS011;3733;47.994;8.820;2023-04-01T11:44:55;1.70;;;1.20;;
7383;SDS011;3733;47.994;8.820;2023-04-01T11:58:18;1.00;;;0.93;;
7383;SDS011;3733;47.994;8.820;2023-04-01T12:12:00;0.90;;;0.90;;
7383;SDS011;3733;47.994;8.820;2023-04-01T12:14:54;1.27;;;0.90;;
7383;SDS011;3733;47.994;8.820;2023-04-01T12:20:26;1.07;;;0.90;;
7383;SDS011;3733;47.994;8.820;2023-04-01T12:23:13;0.80;;;0.80;;
7383;SDS011;3733;47.994;8.820;2023-04-01T12:31:56;0.90;;;0.90;;
7383;SDS011;3733;47.994;8.820;2023-04-01T12:34:44;0.80;;;0.80;;
7383;SDS011;3733;47.994;8.820;2023-04-01T12:40:17;1.23;;;0.90;;
7383;SDS011;3733;47.994;8.820;2023-04-01T12:48:46;0.93;;;0.90;;
7383;SDS011;3733;47.994;8.820;2023-04-01T13:05:13;2.77;;;0.93;;
7383;SDS011;3733;47.994;8.820;2023-04-01T13:07:50;1.10;;;1.00;;
7383;SDS011;3733;47.994;8.820;2023-04-01T13:15:55;0.93;;;0.93;;
7383;SDS011;3733;47.994;8.820;2023-04-01T13:21:21;0.83;;;0.83;;
7383;SDS011;3733;47.994;8.820;2023-04-01T13:37:59;1.73;;;0.97;;
7383;SDS011;3733;47.994;8.820;2023-04-01T13:40:51;1.00;;;1.00;;
7383;SDS011;3733;47.994;8.820;2023-04-01T13:43:37;1.10;;;1.00;;
7383;SDS011;3733;47.994;8.820;2023-04-01T14:22:43;1.17;;;1.10;;
7383;SDS011;3733;47.994;8.820;2023-04-01T14:25:30;1.33;;;1.20;;
7383;SDS011;3733;47.994;8.820;2023-04-01T14:36:29;2.10;;;1.57;;
7383;SDS011;3733;47.994;8.820;2023-04-01T14:41:48;1.90;;;1.60;;
7383;SDS011;3733;47.994;8.820;2023-04-01T14:49:41;1.20;;;1.10;;
7383;SDS011;3733;47.994;8.820;2023-04-01T14:55:00;1.20;;;1.20;;
7383;SDS011;3733;47.994;8.820;2023-04-01T14:57:36;2.60;;;1.17;;
7383;SDS011;3733;47.994;8.820;2023-04-01T15:00:14;1.33;;;1.20;;
7383;SDS011;3733;47.994;8.820;2023-04-01T15:14:11;1.40;;;1.27;;
7383;SDS011;3733;47.994;8.820;2023-04-01T15:30:58;2.70;;;1.30;;
7383;SDS011;3733;47.994;8.820;2023-04-01T15:36:49;2.50;;;2.00;;
7383;SDS011;3733;47.994;8.820;2023-04-01T15:42:10;2.70;;;2.10;;
7383;SDS011;3733;47.994;8.820;2023-04-01T15:47:07;2.10;;;1.50;;
7383;SDS011;3733;47.994;8.820;2023-04-01T15:49:46;2.43;;;1.93;;
7383;SDS011;3733;47.994;8.820;2023-04-01T15:52:43;1.30;;;0.90;;
7383;SDS011;3733;47.994;8.820;2023-04-01T16:00:28;1.13;;;1.00;;
7383;SDS011;3733;47.994;8.820;2023-04-01T16:22:40;1.37;;;1.27;;
7383;SDS011;3733;47.994;8.820;2023-04-01T16:31:03;2.30;;;1.40;;
7383;SDS011;3733;47.994;8.820;2023-04-01T16:42:31;3.47;;;2.00;;
7383;SDS011;3733;47.994;8.820;2023-04-01T16:45:00;2.37;;;1.63;;
7383;SDS011;3733;47.994;8.820;2023-04-01T16:47:38;2.23;;;1.80;;
7383;SDS011;3733;47.994;8.820;2023-04-01T16:50:25;2.33;;;1.83;;
7383;SDS011;3733;47.994;8.820;2023-04-01T16:52:59;2.97;;;2.20;;
7383;SDS011;3733;47.994;8.820;2023-04-01T16:58:18;3.70;;;1.77;;
7383;SDS011;3733;47.994;8.820;2023-04-01T17:00:49;3.27;;;2.70;;
7383;SDS011;3733;47.994;8.820;2023-04-01T17:03:22;3.07;;;2.50;;
7383;SDS011;3733;47.994;8.820;2023-04-01T17:08:55;2.07;;;1.87;;
7383;SDS011;3733;47.994;8.820;2023-04-01T17:14:17;2.30;;;1.87;;
7383;SDS011;3733;47.994;8.820;2023-04-01T17:16:50;2.10;;;1.90;;
7383;SDS011;3733;47.994;8.820;2023-04-01T17:27:51;3.60;;;1.80;;
7383;SDS011;3733;47.994;8.820;2023-04-01T17:30:39;2.10;;;1.60;;
7383;SDS011;3733;47.994;8.820;2023-04-01T17:33:20;2.17;;;1.77;;
7383;SDS011;3733;47.994;8.820;2023-04-01T17:35:56;2.80;;;2.00;;
7383;SDS011;3733;47.994;8.820;2023-04-01T17:52:42;4.43;;;3.27;;
7383;SDS011;3733;47.994;8.820;2023-04-01T17:57:59;6.03;;;4.50;;
7383;SDS011;3733;47.994;8.820;2023-04-01T18:03:17;11.60;;;6.47;;
7383;SDS011;3733;47.994;8.820;2023-04-01T18:19:18;4.30;;;2.90;;
7383;SDS011;3733;47.994;8.820;2023-04-01T18:22:04;4.50;;;3.10;;
7383;SDS011;3733;47.994;8.820;2023-04-01T18:24:56;4.43;;;3.30;;
7383;SDS011;3733;47.994;8.820;2023-04-01T18:27:38;5.70;;;3.53;;
7383;SDS011;3733;47.994;8.820;2023-04-01T18:30:28;5.90;;;3.43;;
7383;SDS011;3733;47.994;8.820;2023-04-01T18:36:09;5.70;;;4.47;;
7383;SDS011;3733;47.994;8.820;2023-04-01T18:38:49;6.80;;;4.50;;
7383;SDS011;3733;47.994;8.820;2023-04-01T18:57:26;3.77;;;3.40;;
7383;SDS011;3733;47.994;8.820;2023-04-01T19:00:04;4.80;;;3.30;;
7383;SDS011;3733;47.994;8.820;2023-04-01T19:02:55;7.40;;;6.70;;
7383;SDS011;3733;47.994;8.820;2023-04-01T19:05:35;6.90;;;4.10;;
7383;SDS011;3733;47.994;8.820;2023-04-01T19:08:26;9.60;;;6.23;;
7383;SDS011;3733;47.994;8.820;2023-04-01T19:27:11;5.10;;;4.17;;
7383;SDS011;3733;47.994;8.820;2023-04-01T19:43:47;5.90;;;3.70;;
7383;SDS011;3733;47.994;8.820;2023-04-01T19:59:50;5.77;;;4.80;;
7383;SDS011;3733;47.994;8.820;2023-04-01T20:04:57;5.27;;;4.07;;
7383;SDS011;3733;47.994;8.820;2023-04-01T20:07:31;4.73;;;4.20;;
7383;SDS011;3733;47.994;8.820;2023-04-01T20:17:45;19.47;;;11.60;;
7383;SDS011;3733;47.994;8.820;2023-04-01T20:20:20;19.63;;;10.90;;
7383;SDS011;3733;47.994;8.820;2023-04-01T20:25:48;3.93;;;3.60;;
7383;SDS011;3733;47.994;8.820;2023-04-01T20:49:58;3.77;;;2.53;;
7383;SDS011;3733;47.994;8.820;2023-04-01T20:55:29;4.40;;;2.27;;
7383;SDS011;3733;47.994;8.820;2023-04-01T20:58:28;4.63;;;2.10;;
7383;SDS011;3733;47.994;8.820;2023-04-01T21:01:04;3.30;;;2.77;;
7383;SDS011;3733;47.994;8.820;2023-04-01T21:03:57;2.63;;;2.30;;
7383;SDS011;3733;47.994;8.820;2023-04-01T21:18:13;2.50;;;2.30;;
7383;SDS011;3733;47.994;8.820;2023-04-01T21:21:21;3.73;;;2.83;;
7383;SDS011;3733;47.994;8.820;2023-04-01T21:24:05;3.80;;;2.53;;
7383;SDS011;3733;47.994;8.820;2023-04-01T21:32:18;5.30;;;3.33;;
7383;SDS011;3733;47.994;8.820;2023-04-01T21:38:03;3.43;;;2.33;;
7383;SDS011;3733;47.994;8.820;2023-04-01T22:10:31;6.27;;;2.73;;
7383;SDS011;3733;47.994;8.820;2023-04-01T22:13:23;3.70;;;3.07;;
7383;SDS011;3733;47.994;8.820;2023-04-01T22:18:39;5.50;;;3.40;;
7383;SDS011;3733;47.994;8.820;2023-04-01T22:23:58;5.00;;;2.90;;
7383;SDS011;3733;47.994;8.820;2023-04-01T22:33:07;4.37;;;3.10;;
7383;SDS011;3733;47.994;8.820;2023-04-01T22:40:50;2.27;;;1.90;;
7383;SDS011;3733;47.994;8.820;2023-04-01T22:43:41;2.23;;;1.67;;
7383;SDS011;3733;47.994;8.820;2023-04-01T22:49:25;1.87;;;1.77;;
7383;SDS011;3733;47.994;8.820;2023-04-01T22:51:58;2.30;;;2.10;;
7383;SDS011;3733;47.994;8.820;2023-04-01T22:54:37;3.63;;;1.70;;
7383;SDS011;3733;47.994;8.820;2023-04-01T22:57:10;1.77;;;1.57;;
7383;SDS011;3733;47.994;8.820;2023-04-01T22:59:38;2.77;;;2.03;;
7383;SDS011;3733;47.994;8.820;2023-04-01T23:02:18;5.43;;;2.93;;
7383;SDS011;3733;47.994;8.820;2023-04-01T23:04:54;2.13;;;1.93;;
7383;SDS011;3733;47.994;8.820;2023-04-01T23:12:56;2.43;;;2.13;;
7383;SDS011;3733;47.994;8.820;2023-04-01T23:15:24;5.73;;;2.60;;
7383;SDS011;3733;47.994;8.820;2023-04-01T23:17:53;2.43;;;1.93;;
7383;SDS011;3733;47.994;8.820;2023-04-01T23:20:29;2.50;;;1.60;;
7383;SDS011;3733;47.994;8.820;2023-04-01T23:28:26;1.67;;;1.50;;
7383;SDS011;3733;47.994;8.820;2023-04-01T23:33:59;1.80;;;1.70;;
7383;SDS011;3733;47.994;8.820;2023-04-01T23:36:49;1.90;;;1.70;;
7383;SDS011;3733;47.994;8.820;2023-04-01T23:39:20;3.60;;;2.57;;
7383;SDS011;3733;47.994;8.820;2023-04-01T23:41:58;3.33;;;2.20;;
7383;SDS011;3733;47.994;8.820;2023-04-01T23:44:44;2.57;;;1.70;;
7383;SDS011;3733;47.994;8.820;2023-04-01T23:47:13;2.40;;;1.73;;
7383;SDS011;3733;47.994;8.820;2023-04-01T23:49:44;2.50;;;1.63;;
7383;SDS011;3733;47.994;8.820;2023-04-01T23:54:51;3.63;;;2.13;;
7383;SDS011;3733;47.994;8.820;2023-04-01T23:57:19;1.60;;;1.50;;
7383;SDS011;3733;47.994;8.820;2023-04-01T23:59:59;1.93;;;1.57;;
